Northsea Beta — 9HA2594 — position and weather

sailwx.info

Track history (hours):
 
Tides and Currents Weather Stations Pressure Air Temp Water Temp Dewpoint Dewpoint Depression Visibility Wind Speed Wind Dir Waves Ship Positions

Northsea Beta

Last reported at 2016-May-28 14:17 UTC. Time now 2016-May-28 19:44 UTC.
Position N 51°53' E 004°18'.

Length 110 m; draft 5.3 m.

Type: Tanker. MMSI: 248970000.

Date/timePositionNaut miles runAvg speedWind from/ knotsBaromVisibWave heightAir tempDewpointWater temp
2016-May-28 14:17N 51°53' E 004°18'5 6.5
2016-May-28 13:34N 51°56' E 004°13'9 9.2
2016-May-28 12:34N 51°60' E 003°59'8 1.8
2016-May-28 08:22N 51°57' E 003°47'0 0.0
2016-May-28 07:28N 51°57' E 003°47'0 0.0
2016-May-28 06:28N 51°57' E 003°47'0 0.0
2016-May-28 04:31N 51°57' E 003°47'0 0.1
2016-May-28 03:19N 51°57' E 003°47'0 0.0
2016-May-28 02:31N 51°57' E 003°47'0 0.0
2016-May-28 01:25N 51°57' E 003°47'0 0.0
2016-May-27 23:28N 51°57' E 003°47'0 0.0
2016-May-27 22:19N 51°57' E 003°47'0 0.0
2016-May-27 21:28N 51°57' E 003°47'0 0.0
2016-May-27 20:13N 51°57' E 003°47'0 0.1
2016-May-27 19:31N 51°57' E 003°47'0 0.0
2016-May-27 18:31N 51°57' E 003°47'0 0.0
2016-May-27 17:31N 51°57' E 003°47'0 0.1
2016-May-27 16:19N 51°57' E 003°47'0 0.1
2016-May-27 15:25N 51°57' E 003°47'0 0.0
2016-May-27 14:16N 51°57' E 003°47'0 0.0
2016-May-27 07:13N 51°57' E 003°47'5410.8
2016-May-27 02:11N 51°47' E 002°21'710.7
2016-May-27 01:33N 51°43' E 002°12'1010.2
2016-May-27 00:33N 51°36' E 002°00'5 4.9
2016-May-26 23:34N 51°40' E 002°04'6 6.2
2016-May-26 22:33N 51°43' E 002°13'7 7.3
2016-May-26 21:33N 51°39' E 002°03'1311.6
2016-May-26 20:25N 51°48' E 002°18'6 6.7
2016-May-26 19:33N 51°44' E 002°12'1211.8
2016-May-26 18:34N 51°36' E 001°59'1 1.2
2016-May-26 17:33N 51°35' E 001°58'1010.4
2016-May-26 16:32N 51°42' E 002°09'10 4.7
2016-May-26 14:20N 51°52' E 002°09'911.2
2016-May-26 13:34N 51°49' E 001°55'1110.5
2016-May-26 12:33N 51°51' E 001°39'9 8.9
2016-May-26 11:34N 51°56' E 001°26'7 7.2
2016-May-26 10:34N 51°57' E 001°15'0 0.3
2016-May-26 09:31N 51°57' E 001°14'0 0.0
2016-May-26 08:31N 51°57' E 001°14'0 0.0
2016-May-26 07:31N 51°57' E 001°14'0 0.0
2016-May-26 06:31N 51°57' E 001°14'0 0.0
2016-May-26 05:31N 51°57' E 001°14'0 0.0
2016-May-26 04:31N 51°57' E 001°14'0 0.0
2016-May-26 03:31N 51°57' E 001°14'0 0.0
2016-May-26 02:31N 51°57' E 001°14'0 0.0
2016-May-26 01:31N 51°57' E 001°14'0 0.0
2016-May-26 00:31N 51°57' E 001°14'0 0.0
2016-May-25 23:31N 51°57' E 001°14'0 0.0
2016-May-25 22:31N 51°57' E 001°14'0 0.0
2016-May-25 21:31N 51°57' E 001°14'0 0.0
2016-May-25 20:31N 51°57' E 001°14'0 0.0
2016-May-25 19:31N 51°57' E 001°14'0 0.0
2016-May-25 18:31N 51°57' E 001°14'0 0.0
2016-May-25 17:31N 51°57' E 001°14'0 0.0
2016-May-25 16:31N 51°57' E 001°14'0 0.0
2016-May-25 15:31N 51°57' E 001°14'0 0.0
2016-May-25 14:31N 51°57' E 001°14'0 0.0
2016-May-25 13:31N 51°57' E 001°14'0 0.0
2016-May-25 12:31N 51°57' E 001°14'0 0.0
2016-May-25 11:31N 51°57' E 001°14'0 0.0
2016-May-25 10:31N 51°57' E 001°14'0 0.0
2016-May-25 09:31N 51°57' E 001°14'0 0.0
2016-May-25 08:31N 51°57' E 001°14'0 0.0
2016-May-25 07:31N 51°57' E 001°14'0 0.0
2016-May-25 06:31N 51°57' E 001°14'0 0.0
2016-May-25 05:31N 51°57' E 001°14'0 0.0
2016-May-25 04:31N 51°57' E 001°14'0 0.0
2016-May-25 03:31N 51°57' E 001°14'0 0.0
2016-May-25 02:31N 51°57' E 001°14'0 0.0
2016-May-25 01:31N 51°57' E 001°14'0 0.0
2016-May-25 00:31N 51°57' E 001°14'0 0.0
2016-May-24 23:31N 51°57' E 001°14'0 0.0
2016-May-24 22:31N 51°57' E 001°14'0 0.0
2016-May-24 21:31N 51°57' E 001°14'0 0.0
2016-May-24 20:31N 51°57' E 001°14'0 0.0
2016-May-24 19:31N 51°57' E 001°14'0 0.0
2016-May-24 18:31N 51°57' E 001°14'0 0.0
2016-May-24 17:31N 51°57' E 001°14'0 0.0
2016-May-24 16:31N 51°57' E 001°14'0 0.0
2016-May-24 15:28N 51°57' E 001°14'0 0.0
2016-May-24 14:31N 51°57' E 001°14'0 0.3
2016-May-24 13:34N 51°57' E 001°15'7 6.7
2016-May-24 12:34N 51°56' E 001°26'4 3.5
2016-May-24 11:31N 51°57' E 001°31'0 0.0
2016-May-24 10:31N 51°57' E 001°31'0 0.0
2016-May-24 09:31N 51°57' E 001°31'0 0.0
2016-May-24 08:31N 51°57' E 001°31'0 0.0
2016-May-24 07:31N 51°57' E 001°31'0 0.1
2016-May-24 06:31N 51°57' E 001°31'0 0.1
2016-May-24 05:31N 51°58' E 001°31'0 0.0
2016-May-24 04:31N 51°58' E 001°31'0 0.0
2016-May-24 03:28N 51°58' E 001°31'0 0.0
2016-May-24 02:31N 51°58' E 001°31'0 0.0
2016-May-24 01:31N 51°58' E 001°31'0 0.2
2016-May-24 00:31N 51°57' E 001°31'0 0.0
2016-May-23 23:31N 51°57' E 001°31'0 0.0
2016-May-23 22:31N 51°57' E 001°31'0 0.0
2016-May-23 21:31N 51°57' E 001°31'0 0.0
2016-May-23 20:31N 51°57' E 001°31'0 0.0
2016-May-23 19:31N 51°57' E 001°31'0 0.0
2016-May-23 18:31N 51°57' E 001°31'0 0.1
2016-May-23 17:31N 51°58' E 001°31'0 0.0
2016-May-23 16:31N 51°58' E 001°31'0 0.0
2016-May-23 15:31N 51°58' E 001°31'5 5.5
2016-May-23 14:33N 51°53' E 001°34'10 9.4
2016-May-23 13:33N 51°50' E 001°49'9 9.4
2016-May-23 12:33N 51°53' E 002°04'49 9.6
2016-May-23 07:26N 51°39' E 003°20'9 9.8
2016-May-23 06:33N 51°31' E 003°26'9 9.3
2016-May-23 05:33N 51°25' E 003°38'1111.2
2016-May-23 04:33N 51°22' E 003°55'6 6.1
2016-May-23 03:33N 51°22' E 004°04'7 7.3
2016-May-23 02:33N 51°21' E 004°16'5 4.9
2016-May-23 01:34N 51°17' E 004°20'2 1.6
2016-May-23 00:33N 51°15' E 004°22'0 0.0
2016-May-22 23:33N 51°15' E 004°22'0 0.0
2016-May-22 22:33N 51°15' E 004°22'0 0.0
2016-May-22 21:33N 51°15' E 004°22'0 0.0
2016-May-22 20:33N 51°15' E 004°22'0 0.0
2016-May-22 19:33N 51°15' E 004°22'0 0.0
2016-May-22 18:33N 51°15' E 004°22'0 0.0
2016-May-22 17:33N 51°15' E 004°22'0 0.0
2016-May-22 16:33N 51°15' E 004°22'0 0.0
2016-May-22 15:33N 51°15' E 004°22'0 0.0
2016-May-22 14:33N 51°15' E 004°22'0 0.0
2016-May-22 13:33N 51°15' E 004°22'0 0.0
2016-May-22 12:33N 51°15' E 004°22'0 0.0
2016-May-22 11:33N 51°15' E 004°22'0 0.0
2016-May-22 10:33N 51°15' E 004°22'0 0.0
2016-May-22 09:33N 51°15' E 004°22'0 0.0
2016-May-22 08:33N 51°15' E 004°22'0 0.0
2016-May-22 07:33N 51°15' E 004°22'0 0.0
2016-May-22 06:33N 51°15' E 004°22'0 0.0
2016-May-22 05:33N 51°15' E 004°22'0 0.0
2016-May-22 04:30N 51°15' E 004°22'0 0.0
2016-May-22 03:33N 51°15' E 004°22'0 0.0
2016-May-22 02:33N 51°15' E 004°22'0 0.0
2016-May-22 01:33N 51°15' E 004°22'0 0.0
2016-May-22 00:33N 51°15' E 004°22'0 0.0
2016-May-21 23:33N 51°15' E 004°22'0 0.0
2016-May-21 22:33N 51°15' E 004°22'0 0.0
2016-May-21 21:33N 51°15' E 004°22'0 0.0
2016-May-21 20:33N 51°15' E 004°22'1 0.6
2016-May-21 19:33N 51°15' E 004°22'0 0.2
2016-May-21 18:31N 51°15' E 004°23'0 0.0
2016-May-21 17:31N 51°15' E 004°23'0 0.0
2016-May-21 16:31N 51°15' E 004°23'0 0.0
2016-May-21 15:31N 51°15' E 004°23'0 0.0
2016-May-21 14:31N 51°15' E 004°23'0 0.0
2016-May-21 13:31N 51°15' E 004°23'0 0.0
2016-May-21 12:31N 51°15' E 004°23'0 0.0
2016-May-21 11:31N 51°15' E 004°23'0 0.0
2016-May-21 10:31N 51°15' E 004°23'0 0.0
2016-May-21 09:28N 51°15' E 004°23'0 0.0
2016-May-21 08:31N 51°15' E 004°23'0 0.0
2016-May-21 07:31N 51°15' E 004°23'0 0.0
2016-May-21 06:25N 51°15' E 004°23'0 0.0
2016-May-21 05:31N 51°15' E 004°23'0 0.0
2016-May-21 04:31N 51°15' E 004°23'3 2.7
2016-May-21 03:33N 51°17' E 004°20'4 3.9
2016-May-21 02:33N 51°21' E 004°17'1 0.6
2016-May-21 01:34N 51°21' E 004°16'6 6.1
2016-May-21 00:34N 51°22' E 004°07'9 8.8
2016-May-20 23:33N 51°21' E 003°53'1212.2
2016-May-20 22:34N 51°26' E 003°35'1211.7
2016-May-20 21:31N 51°36' E 003°23'11 0.4
2016-May-19 15:17N 51°46' E 003°18'0 0.0
2016-May-19 13:29N 51°46' E 003°18'  
Track history (hours):
 
Tides and Currents Weather Stations Pressure Air Temp Water Temp Dewpoint Dewpoint Depression Visibility Wind Speed Wind Dir Waves Ship Positions

Northsea Beta

Last reported at 2016-May-28 14:17 UTC. Time now 2016-May-28 19:44 UTC.
Position N 51°53' E 004°18'.

Length 110 m; draft 5.3 m.

Type: Tanker. MMSI: 248970000.

Date/timePositionNaut miles runAvg speedWind from/ knotsBaromVisibWave heightAir tempDewpointWater temp
2016-May-28 14:17N 51°53' E 004°18'5 6.5
2016-May-28 13:34N 51°56' E 004°13'9 9.2
2016-May-28 12:34N 51°60' E 003°59'8 1.8
2016-May-28 08:22N 51°57' E 003°47'0 0.0
2016-May-28 07:28N 51°57' E 003°47'0 0.0
2016-May-28 06:28N 51°57' E 003°47'0 0.0
2016-May-28 04:31N 51°57' E 003°47'0 0.1
2016-May-28 03:19N 51°57' E 003°47'0 0.0
2016-May-28 02:31N 51°57' E 003°47'0 0.0
2016-May-28 01:25N 51°57' E 003°47'0 0.0
2016-May-27 23:28N 51°57' E 003°47'0 0.0
2016-May-27 22:19N 51°57' E 003°47'0 0.0
2016-May-27 21:28N 51°57' E 003°47'0 0.0
2016-May-27 20:13N 51°57' E 003°47'0 0.1
2016-May-27 19:31N 51°57' E 003°47'0 0.0
2016-May-27 18:31N 51°57' E 003°47'0 0.0
2016-May-27 17:31N 51°57' E 003°47'0 0.1
2016-May-27 16:19N 51°57' E 003°47'0 0.1
2016-May-27 15:25N 51°57' E 003°47'0 0.0
2016-May-27 14:16N 51°57' E 003°47'0 0.0
2016-May-27 07:13N 51°57' E 003°47'5410.8
2016-May-27 02:11N 51°47' E 002°21'710.7
2016-May-27 01:33N 51°43' E 002°12'1010.2
2016-May-27 00:33N 51°36' E 002°00'5 4.9
2016-May-26 23:34N 51°40' E 002°04'6 6.2
2016-May-26 22:33N 51°43' E 002°13'7 7.3
2016-May-26 21:33N 51°39' E 002°03'1311.6
2016-May-26 20:25N 51°48' E 002°18'6 6.7
2016-May-26 19:33N 51°44' E 002°12'1211.8
2016-May-26 18:34N 51°36' E 001°59'1 1.2
2016-May-26 17:33N 51°35' E 001°58'1010.4
2016-May-26 16:32N 51°42' E 002°09'10 4.7
2016-May-26 14:20N 51°52' E 002°09'911.2
2016-May-26 13:34N 51°49' E 001°55'1110.5
2016-May-26 12:33N 51°51' E 001°39'9 8.9
2016-May-26 11:34N 51°56' E 001°26'7 7.2
2016-May-26 10:34N 51°57' E 001°15'0 0.3
2016-May-26 09:31N 51°57' E 001°14'0 0.0
2016-May-26 08:31N 51°57' E 001°14'0 0.0
2016-May-26 07:31N 51°57' E 001°14'0 0.0
2016-May-26 06:31N 51°57' E 001°14'0 0.0
2016-May-26 05:31N 51°57' E 001°14'0 0.0
2016-May-26 04:31N 51°57' E 001°14'0 0.0
2016-May-26 03:31N 51°57' E 001°14'0 0.0
2016-May-26 02:31N 51°57' E 001°14'0 0.0
2016-May-26 01:31N 51°57' E 001°14'0 0.0
2016-May-26 00:31N 51°57' E 001°14'0 0.0
2016-May-25 23:31N 51°57' E 001°14'0 0.0
2016-May-25 22:31N 51°57' E 001°14'0 0.0
2016-May-25 21:31N 51°57' E 001°14'0 0.0
2016-May-25 20:31N 51°57' E 001°14'0 0.0
2016-May-25 19:31N 51°57' E 001°14'0 0.0
2016-May-25 18:31N 51°57' E 001°14'0 0.0
2016-May-25 17:31N 51°57' E 001°14'0 0.0
2016-May-25 16:31N 51°57' E 001°14'0 0.0
2016-May-25 15:31N 51°57' E 001°14'0 0.0
2016-May-25 14:31N 51°57' E 001°14'0 0.0
2016-May-25 13:31N 51°57' E 001°14'0 0.0
2016-May-25 12:31N 51°57' E 001°14'0 0.0
2016-May-25 11:31N 51°57' E 001°14'0 0.0
2016-May-25 10:31N 51°57' E 001°14'0 0.0
2016-May-25 09:31N 51°57' E 001°14'0 0.0
2016-May-25 08:31N 51°57' E 001°14'0 0.0
2016-May-25 07:31N 51°57' E 001°14'0 0.0
2016-May-25 06:31N 51°57' E 001°14'0 0.0
2016-May-25 05:31N 51°57' E 001°14'0 0.0
2016-May-25 04:31N 51°57' E 001°14'0 0.0
2016-May-25 03:31N 51°57' E 001°14'0 0.0
2016-May-25 02:31N 51°57' E 001°14'0 0.0
2016-May-25 01:31N 51°57' E 001°14'0 0.0
2016-May-25 00:31N 51°57' E 001°14'0 0.0
2016-May-24 23:31N 51°57' E 001°14'0 0.0
2016-May-24 22:31N 51°57' E 001°14'0 0.0
2016-May-24 21:31N 51°57' E 001°14'0 0.0
2016-May-24 20:31N 51°57' E 001°14'0 0.0
2016-May-24 19:31N 51°57' E 001°14'0 0.0
2016-May-24 18:31N 51°57' E 001°14'0 0.0
2016-May-24 17:31N 51°57' E 001°14'0 0.0
2016-May-24 16:31N 51°57' E 001°14'0 0.0
2016-May-24 15:28N 51°57' E 001°14'0 0.0
2016-May-24 14:31N 51°57' E 001°14'0 0.3
2016-May-24 13:34N 51°57' E 001°15'7 6.7
2016-May-24 12:34N 51°56' E 001°26'4 3.5
2016-May-24 11:31N 51°57' E 001°31'0 0.0
2016-May-24 10:31N 51°57' E 001°31'0 0.0
2016-May-24 09:31N 51°57' E 001°31'0 0.0
2016-May-24 08:31N 51°57' E 001°31'0 0.0
2016-May-24 07:31N 51°57' E 001°31'0 0.1
2016-May-24 06:31N 51°57' E 001°31'0 0.1
2016-May-24 05:31N 51°58' E 001°31'0 0.0
2016-May-24 04:31N 51°58' E 001°31'0 0.0
2016-May-24 03:28N 51°58' E 001°31'0 0.0
2016-May-24 02:31N 51°58' E 001°31'0 0.0
2016-May-24 01:31N 51°58' E 001°31'0 0.2
2016-May-24 00:31N 51°57' E 001°31'0 0.0
2016-May-23 23:31N 51°57' E 001°31'0 0.0
2016-May-23 22:31N 51°57' E 001°31'0 0.0
2016-May-23 21:31N 51°57' E 001°31'0 0.0
2016-May-23 20:31N 51°57' E 001°31'0 0.0
2016-May-23 19:31N 51°57' E 001°31'0 0.0
2016-May-23 18:31N 51°57' E 001°31'0 0.1
2016-May-23 17:31N 51°58' E 001°31'0 0.0
2016-May-23 16:31N 51°58' E 001°31'0 0.0
2016-May-23 15:31N 51°58' E 001°31'5 5.5
2016-May-23 14:33N 51°53' E 001°34'10 9.4
2016-May-23 13:33N 51°50' E 001°49'9 9.4
2016-May-23 12:33N 51°53' E 002°04'49 9.6
2016-May-23 07:26N 51°39' E 003°20'9 9.8
2016-May-23 06:33N 51°31' E 003°26'9 9.3
2016-May-23 05:33N 51°25' E 003°38'1111.2
2016-May-23 04:33N 51°22' E 003°55'6 6.1
2016-May-23 03:33N 51°22' E 004°04'7 7.3
2016-May-23 02:33N 51°21' E 004°16'5 4.9
2016-May-23 01:34N 51°17' E 004°20'2 1.6
2016-May-23 00:33N 51°15' E 004°22'0 0.0
2016-May-22 23:33N 51°15' E 004°22'0 0.0
2016-May-22 22:33N 51°15' E 004°22'0 0.0
2016-May-22 21:33N 51°15' E 004°22'0 0.0
2016-May-22 20:33N 51°15' E 004°22'0 0.0
2016-May-22 19:33N 51°15' E 004°22'0 0.0
2016-May-22 18:33N 51°15' E 004°22'0 0.0
2016-May-22 17:33N 51°15' E 004°22'0 0.0
2016-May-22 16:33N 51°15' E 004°22'0 0.0
2016-May-22 15:33N 51°15' E 004°22'0 0.0
2016-May-22 14:33N 51°15' E 004°22'0 0.0
2016-May-22 13:33N 51°15' E 004°22'0 0.0
2016-May-22 12:33N 51°15' E 004°22'0 0.0
2016-May-22 11:33N 51°15' E 004°22'0 0.0
2016-May-22 10:33N 51°15' E 004°22'0 0.0
2016-May-22 09:33N 51°15' E 004°22'0 0.0
2016-May-22 08:33N 51°15' E 004°22'0 0.0
2016-May-22 07:33N 51°15' E 004°22'0 0.0
2016-May-22 06:33N 51°15' E 004°22'0 0.0
2016-May-22 05:33N 51°15' E 004°22'0 0.0
2016-May-22 04:30N 51°15' E 004°22'0 0.0
2016-May-22 03:33N 51°15' E 004°22'0 0.0
2016-May-22 02:33N 51°15' E 004°22'0 0.0
2016-May-22 01:33N 51°15' E 004°22'0 0.0
2016-May-22 00:33N 51°15' E 004°22'0 0.0
2016-May-21 23:33N 51°15' E 004°22'0 0.0
2016-May-21 22:33N 51°15' E 004°22'0 0.0
2016-May-21 21:33N 51°15' E 004°22'0 0.0
2016-May-21 20:33N 51°15' E 004°22'1 0.6
2016-May-21 19:33N 51°15' E 004°22'0 0.2
2016-May-21 18:31N 51°15' E 004°23'0 0.0
2016-May-21 17:31N 51°15' E 004°23'0 0.0
2016-May-21 16:31N 51°15' E 004°23'0 0.0
2016-May-21 15:31N 51°15' E 004°23'0 0.0
2016-May-21 14:31N 51°15' E 004°23'0 0.0
2016-May-21 13:31N 51°15' E 004°23'0 0.0
2016-May-21 12:31N 51°15' E 004°23'0 0.0
2016-May-21 11:31N 51°15' E 004°23'0 0.0
2016-May-21 10:31N 51°15' E 004°23'0 0.0
2016-May-21 09:28N 51°15' E 004°23'0 0.0
2016-May-21 08:31N 51°15' E 004°23'0 0.0
2016-May-21 07:31N 51°15' E 004°23'0 0.0
2016-May-21 06:25N 51°15' E 004°23'0 0.0
2016-May-21 05:31N 51°15' E 004°23'0 0.0
2016-May-21 04:31N 51°15' E 004°23'3 2.7
2016-May-21 03:33N 51°17' E 004°20'4 3.9
2016-May-21 02:33N 51°21' E 004°17'1 0.6
2016-May-21 01:34N 51°21' E 004°16'6 6.1
2016-May-21 00:34N 51°22' E 004°07'9 8.8
2016-May-20 23:33N 51°21' E 003°53'1212.2
2016-May-20 22:34N 51°26' E 003°35'1211.7
2016-May-20 21:31N 51°36' E 003°23'11 0.4
2016-May-19 15:17N 51°46' E 003°18'0 0.0
2016-May-19 13:29N 51°46' E 003°18'  

Dump ship's entire track history